sensor_id;sensor_type;location;lat;lon;timestamp;P1;durP1;ratioP1;P2;durP2;ratioP2
36443;SDS011;24692;45.642;13.806;2023-05-07T00:02:25;7.13;;;5.33;;
36443;SDS011;24692;45.642;13.806;2023-05-07T00:04:50;5.80;;;5.30;;
36443;SDS011;24692;45.642;13.806;2023-05-07T00:07:17;5.93;;;5.40;;
36443;SDS011;24692;45.642;13.806;2023-05-07T00:09:43;8.13;;;5.53;;
36443;SDS011;24692;45.642;13.806;2023-05-07T00:12:08;6.40;;;5.60;;
36443;SDS011;24692;45.642;13.806;2023-05-07T00:14:34;6.10;;;5.00;;
36443;SDS011;24692;45.642;13.806;2023-05-07T00:17:00;5.93;;;5.33;;
36443;SDS011;24692;45.642;13.806;2023-05-07T00:19:26;7.50;;;5.23;;
36443;SDS011;24692;45.642;13.806;2023-05-07T00:21:51;6.50;;;5.43;;
36443;SDS011;24692;45.642;13.806;2023-05-07T00:24:18;7.43;;;5.73;;
36443;SDS011;24692;45.642;13.806;2023-05-07T00:26:44;6.90;;;5.53;;
36443;SDS011;24692;45.642;13.806;2023-05-07T00:29:10;7.90;;;5.73;;
36443;SDS011;24692;45.642;13.806;2023-05-07T00:31:36;7.83;;;6.00;;
36443;SDS011;24692;45.642;13.806;2023-05-07T00:34:01;6.93;;;5.40;;
36443;SDS011;24692;45.642;13.806;2023-05-07T00:36:27;8.23;;;5.37;;
36443;SDS011;24692;45.642;13.806;2023-05-07T00:38:54;6.77;;;5.90;;
36443;SDS011;24692;45.642;13.806;2023-05-07T00:41:20;6.20;;;5.17;;
36443;SDS011;24692;45.642;13.806;2023-05-07T00:43:46;8.90;;;5.37;;
36443;SDS011;24692;45.642;13.806;2023-05-07T00:46:12;5.50;;;5.00;;
36443;SDS011;24692;45.642;13.806;2023-05-07T00:48:38;6.77;;;5.13;;
36443;SDS011;24692;45.642;13.806;2023-05-07T00:51:05;5.90;;;5.30;;
36443;SDS011;24692;45.642;13.806;2023-05-07T00:53:30;6.73;;;5.27;;
36443;SDS011;24692;45.642;13.806;2023-05-07T00:55:56;6.83;;;5.53;;
36443;SDS011;24692;45.642;13.806;2023-05-07T00:58:22;5.07;;;4.67;;
36443;SDS011;24692;45.642;13.806;2023-05-07T01:00:48;6.07;;;5.47;;
36443;SDS011;24692;45.642;13.806;2023-05-07T01:03:15;5.97;;;5.40;;
36443;SDS011;24692;45.642;13.806;2023-05-07T01:05:41;5.53;;;5.03;;
36443;SDS011;24692;45.642;13.806;2023-05-07T01:08:07;6.57;;;5.17;;
36443;SDS011;24692;45.642;13.806;2023-05-07T01:10:34;7.37;;;4.97;;
36443;SDS011;24692;45.642;13.806;2023-05-07T01:12:59;5.57;;;5.00;;
36443;SDS011;24692;45.642;13.806;2023-05-07T01:15:26;6.07;;;5.33;;
36443;SDS011;24692;45.642;13.806;2023-05-07T01:17:51;5.97;;;5.37;;
36443;SDS011;24692;45.642;13.806;2023-05-07T01:20:17;6.07;;;5.47;;
36443;SDS011;24692;45.642;13.806;2023-05-07T01:22:44;5.40;;;4.90;;
36443;SDS011;24692;45.642;13.806;2023-05-07T01:25:10;5.87;;;4.93;;
36443;SDS011;24692;45.642;13.806;2023-05-07T01:27:36;5.33;;;4.83;;
36443;SDS011;24692;45.642;13.806;2023-05-07T01:30:03;6.93;;;5.27;;
36443;SDS011;24692;45.642;13.806;2023-05-07T01:32:33;5.20;;;4.70;;
36443;SDS011;24692;45.642;13.806;2023-05-07T01:35:01;5.60;;;5.10;;
36443;SDS011;24692;45.642;13.806;2023-05-07T01:37:28;5.30;;;4.80;;
36443;SDS011;24692;45.642;13.806;2023-05-07T01:39:54;5.13;;;4.67;;
36443;SDS011;24692;45.642;13.806;2023-05-07T01:42:21;5.87;;;5.27;;
36443;SDS011;24692;45.642;13.806;2023-05-07T01:44:47;5.10;;;4.60;;
36443;SDS011;24692;45.642;13.806;2023-05-07T01:47:13;5.10;;;4.60;;
36443;SDS011;24692;45.642;13.806;2023-05-07T01:49:39;5.93;;;4.70;;
36443;SDS011;24692;45.642;13.806;2023-05-07T01:52:06;5.90;;;4.77;;
36443;SDS011;24692;45.642;13.806;2023-05-07T01:54:32;5.63;;;4.80;;
36443;SDS011;24692;45.642;13.806;2023-05-07T01:56:58;6.00;;;5.00;;
36443;SDS011;24692;45.642;13.806;2023-05-07T01:59:23;7.07;;;4.93;;
36443;SDS011;24692;45.642;13.806;2023-05-07T02:01:50;5.03;;;4.63;;
36443;SDS011;24692;45.642;13.806;2023-05-07T02:04:15;5.77;;;4.73;;
36443;SDS011;24692;45.642;13.806;2023-05-07T02:06:41;7.07;;;5.03;;
36443;SDS011;24692;45.642;13.806;2023-05-07T02:09:06;6.10;;;4.60;;
36443;SDS011;24692;45.642;13.806;2023-05-07T02:11:33;4.63;;;4.20;;
36443;SDS011;24692;45.642;13.806;2023-05-07T02:13:59;5.20;;;4.63;;
36443;SDS011;24692;45.642;13.806;2023-05-07T02:16:25;6.03;;;4.77;;
36443;SDS011;24692;45.642;13.806;2023-05-07T02:18:50;5.73;;;5.03;;
36443;SDS011;24692;45.642;13.806;2023-05-07T02:21:16;5.07;;;4.57;;
36443;SDS011;24692;45.642;13.806;2023-05-07T02:23:42;6.17;;;4.90;;
36443;SDS011;24692;45.642;13.806;2023-05-07T02:26:08;6.20;;;4.90;;
36443;SDS011;24692;45.642;13.806;2023-05-07T02:28:34;5.70;;;5.00;;
36443;SDS011;24692;45.642;13.806;2023-05-07T02:31:02;5.47;;;4.97;;
36443;SDS011;24692;45.642;13.806;2023-05-07T02:33:28;7.20;;;4.80;;
36443;SDS011;24692;45.642;13.806;2023-05-07T02:35:54;5.70;;;4.63;;
36443;SDS011;24692;45.642;13.806;2023-05-07T02:38:20;5.30;;;4.80;;
36443;SDS011;24692;45.642;13.806;2023-05-07T02:40:46;5.40;;;4.90;;
36443;SDS011;24692;45.642;13.806;2023-05-07T02:43:12;5.80;;;5.13;;
36443;SDS011;24692;45.642;13.806;2023-05-07T02:45:38;6.40;;;5.23;;
36443;SDS011;24692;45.642;13.806;2023-05-07T02:48:04;5.17;;;4.47;;
36443;SDS011;24692;45.642;13.806;2023-05-07T02:50:31;4.97;;;4.53;;
36443;SDS011;24692;45.642;13.806;2023-05-07T02:52:57;5.77;;;4.67;;
36443;SDS011;24692;45.642;13.806;2023-05-07T02:55:23;5.33;;;4.83;;
36443;SDS011;24692;45.642;13.806;2023-05-07T02:57:49;5.13;;;4.53;;
36443;SDS011;24692;45.642;13.806;2023-05-07T03:00:18;4.87;;;4.43;;
36443;SDS011;24692;45.642;13.806;2023-05-07T03:02:46;5.03;;;4.50;;
36443;SDS011;24692;45.642;13.806;2023-05-07T03:05:11;8.10;;;4.90;;
36443;SDS011;24692;45.642;13.806;2023-05-07T03:07:37;8.13;;;4.63;;
36443;SDS011;24692;45.642;13.806;2023-05-07T03:10:03;5.70;;;4.50;;
36443;SDS011;24692;45.642;13.806;2023-05-07T03:12:30;5.63;;;4.50;;
36443;SDS011;24692;45.642;13.806;2023-05-07T03:14:56;5.20;;;4.70;;
36443;SDS011;24692;45.642;13.806;2023-05-07T03:17:22;6.03;;;4.80;;
36443;SDS011;24692;45.642;13.806;2023-05-07T03:19:47;5.53;;;5.03;;
36443;SDS011;24692;45.642;13.806;2023-05-07T03:22:13;5.17;;;4.67;;
36443;SDS011;24692;45.642;13.806;2023-05-07T03:24:39;5.63;;;5.10;;
36443;SDS011;24692;45.642;13.806;2023-05-07T03:27:05;5.23;;;4.73;;
36443;SDS011;24692;45.642;13.806;2023-05-07T03:29:30;6.07;;;4.60;;
36443;SDS011;24692;45.642;13.806;2023-05-07T03:31:56;5.20;;;4.70;;
36443;SDS011;24692;45.642;13.806;2023-05-07T03:34:22;7.20;;;5.17;;
36443;SDS011;24692;45.642;13.806;2023-05-07T03:36:51;5.20;;;4.70;;
36443;SDS011;24692;45.642;13.806;2023-05-07T03:39:16;5.57;;;4.97;;
36443;SDS011;24692;45.642;13.806;2023-05-07T03:41:42;5.97;;;5.37;;
36443;SDS011;24692;45.642;13.806;2023-05-07T03:44:08;5.63;;;5.07;;
36443;SDS011;24692;45.642;13.806;2023-05-07T03:46:33;5.30;;;4.80;;
36443;SDS011;24692;45.642;13.806;2023-05-07T03:48:59;5.90;;;5.30;;
36443;SDS011;24692;45.642;13.806;2023-05-07T03:51:25;6.33;;;4.97;;
36443;SDS011;24692;45.642;13.806;2023-05-07T03:53:51;5.93;;;4.90;;
36443;SDS011;24692;45.642;13.806;2023-05-07T03:56:22;5.77;;;4.77;;
36443;SDS011;24692;45.642;13.806;2023-05-07T03:58:51;6.50;;;4.70;;
36443;SDS011;24692;45.642;13.806;2023-05-07T04:01:17;4.87;;;4.43;;
36443;SDS011;24692;45.642;13.806;2023-05-07T04:03:42;6.73;;;5.37;;
36443;SDS011;24692;45.642;13.806;2023-05-07T04:06:08;5.70;;;5.20;;
36443;SDS011;24692;45.642;13.806;2023-05-07T04:08:34;6.20;;;4.97;;
36443;SDS011;24692;45.642;13.806;2023-05-07T04:11:00;5.90;;;5.20;;
36443;SDS011;24692;45.642;13.806;2023-05-07T04:13:25;5.40;;;4.90;;
36443;SDS011;24692;45.642;13.806;2023-05-07T04:15:54;5.93;;;4.27;;
36443;SDS011;24692;45.642;13.806;2023-05-07T04:18:20;5.70;;;5.10;;
36443;SDS011;24692;45.642;13.806;2023-05-07T04:20:47;7.37;;;5.23;;
36443;SDS011;24692;45.642;13.806;2023-05-07T04:23:14;7.00;;;5.50;;
36443;SDS011;24692;45.642;13.806;2023-05-07T04:25:40;5.83;;;5.23;;
36443;SDS011;24692;45.642;13.806;2023-05-07T04:28:05;6.53;;;4.93;;
36443;SDS011;24692;45.642;13.806;2023-05-07T04:30:31;5.50;;;5.00;;
36443;SDS011;24692;45.642;13.806;2023-05-07T04:32:57;5.20;;;4.70;;
36443;SDS011;24692;45.642;13.806;2023-05-07T04:35:22;5.87;;;4.80;;
36443;SDS011;24692;45.642;13.806;2023-05-07T04:37:48;5.47;;;4.97;;
36443;SDS011;24692;45.642;13.806;2023-05-07T04:40:13;5.53;;;4.70;;
36443;SDS011;24692;45.642;13.806;2023-05-07T04:42:39;5.60;;;5.00;;
36443;SDS011;24692;45.642;13.806;2023-05-07T04:45:05;6.13;;;4.90;;
36443;SDS011;24692;45.642;13.806;2023-05-07T04:47:31;5.53;;;4.70;;
36443;SDS011;24692;45.642;13.806;2023-05-07T04:49:57;5.50;;;5.00;;
36443;SDS011;24692;45.642;13.806;2023-05-07T04:52:23;5.53;;;4.77;;
36443;SDS011;24692;45.642;13.806;2023-05-07T04:54:49;5.27;;;4.77;;
36443;SDS011;24692;45.642;13.806;2023-05-07T04:57:14;5.33;;;4.83;;
36443;SDS011;24692;45.642;13.806;2023-05-07T04:59:41;5.50;;;5.00;;
36443;SDS011;24692;45.642;13.806;2023-05-07T05:02:07;6.30;;;4.37;;
36443;SDS011;24692;45.642;13.806;2023-05-07T05:04:33;4.90;;;4.50;;
36443;SDS011;24692;45.642;13.806;2023-05-07T05:06:58;6.67;;;5.20;;
36443;SDS011;24692;45.642;13.806;2023-05-07T05:09:24;5.30;;;4.60;;
36443;SDS011;24692;45.642;13.806;2023-05-07T05:11:50;5.97;;;4.93;;
36443;SDS011;24692;45.642;13.806;2023-05-07T05:14:15;6.60;;;4.60;;
36443;SDS011;24692;45.642;13.806;2023-05-07T05:16:41;6.73;;;4.90;;
36443;SDS011;24692;45.642;13.806;2023-05-07T05:19:06;4.80;;;4.40;;
36443;SDS011;24692;45.642;13.806;2023-05-07T05:21:32;7.60;;;4.70;;
36443;SDS011;24692;45.642;13.806;2023-05-07T05:23:58;7.27;;;4.70;;
36443;SDS011;24692;45.642;13.806;2023-05-07T05:26:23;6.87;;;5.03;;
36443;SDS011;24692;45.642;13.806;2023-05-07T05:28:49;4.90;;;4.40;;
36443;SDS011;24692;45.642;13.806;2023-05-07T05:31:16;6.53;;;4.90;;
36443;SDS011;24692;45.642;13.806;2023-05-07T05:33:41;5.10;;;4.60;;
36443;SDS011;24692;45.642;13.806;2023-05-07T05:36:09;5.40;;;4.40;;
36443;SDS011;24692;45.642;13.806;2023-05-07T05:38:35;5.17;;;4.67;;
36443;SDS011;24692;45.642;13.806;2023-05-07T05:41:01;4.97;;;4.47;;
36443;SDS011;24692;45.642;13.806;2023-05-07T05:43:27;5.27;;;4.77;;
36443;SDS011;24692;45.642;13.806;2023-05-07T05:45:52;5.30;;;4.80;;
36443;SDS011;24692;45.642;13.806;2023-05-07T05:48:18;5.33;;;4.33;;
36443;SDS011;24692;45.642;13.806;2023-05-07T05:50:43;6.32;;;4.97;;
36443;SDS011;24692;45.642;13.806;2023-05-07T05:53:09;5.93;;;4.23;;
36443;SDS011;24692;45.642;13.806;2023-05-07T05:55:35;5.35;;;4.38;;
36443;SDS011;24692;45.642;13.806;2023-05-07T05:58:01;4.53;;;4.13;;
36443;SDS011;24692;45.642;13.806;2023-05-07T06:00:27;6.13;;;4.45;;
36443;SDS011;24692;45.642;13.806;2023-05-07T06:02:52;5.07;;;4.43;;
36443;SDS011;24692;45.642;13.806;2023-05-07T06:05:18;5.18;;;4.22;;
36443;SDS011;24692;45.642;13.806;2023-05-07T06:07:44;6.90;;;4.80;;
36443;SDS011;24692;45.642;13.806;2023-05-07T06:10:09;4.80;;;4.37;;
36443;SDS011;24692;45.642;13.806;2023-05-07T06:12:35;6.45;;;4.68;;
36443;SDS011;24692;45.642;13.806;2023-05-07T06:15:01;4.90;;;4.47;;
36443;SDS011;24692;45.642;13.806;2023-05-07T06:17:26;5.30;;;4.80;;
36443;SDS011;24692;45.642;13.806;2023-05-07T06:19:52;8.47;;;4.80;;
36443;SDS011;24692;45.642;13.806;2023-05-07T06:22:18;6.35;;;4.85;;
36443;SDS011;24692;45.642;13.806;2023-05-07T06:24:44;6.30;;;5.70;;
36443;SDS011;24692;45.642;13.806;2023-05-07T06:27:09;7.60;;;5.35;;
36443;SDS011;24692;45.642;13.806;2023-05-07T06:29:35;6.33;;;5.27;;
36443;SDS011;24692;45.642;13.806;2023-05-07T06:32:11;7.07;;;5.80;;
36443;SDS011;24692;45.642;13.806;2023-05-07T06:34:38;6.67;;;5.63;;
36443;SDS011;24692;45.642;13.806;2023-05-07T06:37:04;6.80;;;5.73;;
36443;SDS011;24692;45.642;13.806;2023-05-07T06:39:31;6.03;;;5.50;;
36443;SDS011;24692;45.642;13.806;2023-05-07T06:41:57;6.40;;;5.63;;
36443;SDS011;24692;45.642;13.806;2023-05-07T06:44:23;7.37;;;5.90;;
36443;SDS011;24692;45.642;13.806;2023-05-07T06:46:48;6.60;;;5.90;;
36443;SDS011;24692;45.642;13.806;2023-05-07T06:49:14;6.78;;;6.00;;
36443;SDS011;24692;45.642;13.806;2023-05-07T06:51:40;9.68;;;6.40;;
36443;SDS011;24692;45.642;13.806;2023-05-07T06:54:06;9.63;;;6.87;;
36443;SDS011;24692;45.642;13.806;2023-05-07T06:56:32;6.65;;;6.05;;
36443;SDS011;24692;45.642;13.806;2023-05-07T06:58:57;7.57;;;6.43;;
36443;SDS011;24692;45.642;13.806;2023-05-07T07:01:24;9.27;;;6.40;;
36443;SDS011;24692;45.642;13.806;2023-05-07T07:03:50;9.47;;;7.03;;
36443;SDS011;24692;45.642;13.806;2023-05-07T07:06:16;8.48;;;6.10;;
36443;SDS011;24692;45.642;13.806;2023-05-07T07:08:42;8.30;;;5.95;;
36443;SDS011;24692;45.642;13.806;2023-05-07T07:11:07;10.07;;;6.38;;
36443;SDS011;24692;45.642;13.806;2023-05-07T07:13:33;7.50;;;6.07;;
36443;SDS011;24692;45.642;13.806;2023-05-07T07:15:59;6.87;;;5.67;;
36443;SDS011;24692;45.642;13.806;2023-05-07T07:18:25;8.80;;;5.22;;
36443;SDS011;24692;45.642;13.806;2023-05-07T07:20:51;6.25;;;5.07;;
36443;SDS011;24692;45.642;13.806;2023-05-07T07:23:16;8.00;;;5.27;;
36443;SDS011;24692;45.642;13.806;2023-05-07T07:25:42;7.32;;;5.57;;
36443;SDS011;24692;45.642;13.806;2023-05-07T07:28:07;6.50;;;5.43;;
36443;SDS011;24692;45.642;13.806;2023-05-07T07:30:33;6.50;;;5.65;;
36443;SDS011;24692;45.642;13.806;2023-05-07T07:32:59;7.93;;;5.80;;
36443;SDS011;24692;45.642;13.806;2023-05-07T07:35:30;6.57;;;5.30;;
36443;SDS011;24692;45.642;13.806;2023-05-07T07:37:57;4.93;;;4.25;;
36443;SDS011;24692;45.642;13.806;2023-05-07T07:40:23;4.68;;;3.88;;
36443;SDS011;24692;45.642;13.806;2023-05-07T07:42:50;3.28;;;3.00;;
36443;SDS011;24692;45.642;13.806;2023-05-07T07:45:19;4.80;;;3.35;;
36443;SDS011;24692;45.642;13.806;2023-05-07T07:47:45;4.18;;;3.40;;
36443;SDS011;24692;45.642;13.806;2023-05-07T07:50:11;4.28;;;3.67;;
36443;SDS011;24692;45.642;13.806;2023-05-07T07:52:36;5.68;;;3.83;;
36443;SDS011;24692;45.642;13.806;2023-05-07T07:55:02;7.15;;;3.53;;
36443;SDS011;24692;45.642;13.806;2023-05-07T07:57:28;6.00;;;4.25;;
36443;SDS011;24692;45.642;13.806;2023-05-07T07:59:54;5.50;;;4.15;;
36443;SDS011;24692;45.642;13.806;2023-05-07T08:02:20;5.28;;;4.03;;
36443;SDS011;24692;45.642;13.806;2023-05-07T08:04:45;5.20;;;4.05;;
36443;SDS011;24692;45.642;13.806;2023-05-07T08:07:11;4.90;;;4.20;;
36443;SDS011;24692;45.642;13.806;2023-05-07T08:09:37;9.45;;;6.10;;
36443;SDS011;24692;45.642;13.806;2023-05-07T08:12:04;6.72;;;5.15;;
36443;SDS011;24692;45.642;13.806;2023-05-07T08:14:33;7.63;;;5.57;;
36443;SDS011;24692;45.642;13.806;2023-05-07T08:16:59;8.60;;;6.07;;
36443;SDS011;24692;45.642;13.806;2023-05-07T08:19:25;8.80;;;5.68;;
36443;SDS011;24692;45.642;13.806;2023-05-07T08:21:51;6.65;;;6.00;;
36443;SDS011;24692;45.642;13.806;2023-05-07T08:24:17;9.10;;;6.40;;
36443;SDS011;24692;45.642;13.806;2023-05-07T08:26:43;9.65;;;6.25;;
36443;SDS011;24692;45.642;13.806;2023-05-07T08:29:10;11.20;;;6.00;;
36443;SDS011;24692;45.642;13.806;2023-05-07T08:31:35;9.25;;;6.03;;
36443;SDS011;24692;45.642;13.806;2023-05-07T08:34:01;9.23;;;6.53;;
36443;SDS011;24692;45.642;13.806;2023-05-07T08:36:28;10.20;;;6.32;;
36443;SDS011;24692;45.642;13.806;2023-05-07T08:38:53;6.70;;;6.10;;
36443;SDS011;24692;45.642;13.806;2023-05-07T08:41:19;10.52;;;6.05;;
36443;SDS011;24692;45.642;13.806;2023-05-07T08:43:49;7.47;;;6.20;;
36443;SDS011;24692;45.642;13.806;2023-05-07T08:46:19;6.03;;;5.47;;
36443;SDS011;24692;45.642;13.806;2023-05-07T08:48:49;7.78;;;6.05;;
36443;SDS011;24692;45.642;13.806;2023-05-07T08:51:16;6.53;;;5.28;;
36443;SDS011;24692;45.642;13.806;2023-05-07T08:53:46;8.70;;;5.80;;
36443;SDS011;24692;45.642;13.806;2023-05-07T08:56:13;7.63;;;5.70;;
36443;SDS011;24692;45.642;13.806;2023-05-07T08:58:40;7.05;;;5.22;;
36443;SDS011;24692;45.642;13.806;2023-05-07T09:01:07;6.72;;;5.43;;
36443;SDS011;24692;45.642;13.806;2023-05-07T09:03:38;6.18;;;5.28;;
36443;SDS011;24692;45.642;13.806;2023-05-07T09:06:04;6.22;;;5.20;;
36443;SDS011;24692;45.642;13.806;2023-05-07T09:08:32;6.28;;;5.47;;
36443;SDS011;24692;45.642;13.806;2023-05-07T09:10:58;6.15;;;5.55;;
36443;SDS011;24692;45.642;13.806;2023-05-07T09:13:23;7.63;;;5.80;;
36443;SDS011;24692;45.642;13.806;2023-05-07T09:15:49;5.85;;;5.13;;
36443;SDS011;24692;45.642;13.806;2023-05-07T09:18:15;7.60;;;5.45;;
36443;SDS011;24692;45.642;13.806;2023-05-07T09:20:41;5.35;;;4.85;;
36443;SDS011;24692;45.642;13.806;2023-05-07T09:23:07;7.60;;;5.90;;
36443;SDS011;24692;45.642;13.806;2023-05-07T09:25:33;6.90;;;6.05;;
36443;SDS011;24692;45.642;13.806;2023-05-07T09:28:00;9.38;;;6.38;;
36443;SDS011;24692;45.642;13.806;2023-05-07T09:30:32;7.28;;;6.47;;
36443;SDS011;24692;45.642;13.806;2023-05-07T09:32:59;7.55;;;6.00;;
36443;SDS011;24692;45.642;13.806;2023-05-07T09:35:26;7.60;;;6.22;;
36443;SDS011;24692;45.642;13.806;2023-05-07T09:37:59;8.18;;;6.32;;
36443;SDS011;24692;45.642;13.806;2023-05-07T09:40:26;6.70;;;5.82;;
36443;SDS011;24692;45.642;13.806;2023-05-07T09:42:54;8.25;;;5.80;;
36443;SDS011;24692;45.642;13.806;2023-05-07T09:45:26;7.18;;;5.75;;
36443;SDS011;24692;45.642;13.806;2023-05-07T09:47:56;8.57;;;6.32;;
36443;SDS011;24692;45.642;13.806;2023-05-07T09:50:28;7.88;;;6.18;;
36443;SDS011;24692;45.642;13.806;2023-05-07T09:52:57;7.05;;;6.40;;
36443;SDS011;24692;45.642;13.806;2023-05-07T09:55:23;8.35;;;7.20;;
36443;SDS011;24692;45.642;13.806;2023-05-07T09:57:50;7.35;;;6.65;;
36443;SDS011;24692;45.642;13.806;2023-05-07T10:00:18;7.40;;;6.70;;
36443;SDS011;24692;45.642;13.806;2023-05-07T10:02:45;6.68;;;5.78;;
36443;SDS011;24692;45.642;13.806;2023-05-07T10:05:14;6.22;;;5.63;;
36443;SDS011;24692;45.642;13.806;2023-05-07T10:07:40;6.60;;;5.45;;
36443;SDS011;24692;45.642;13.806;2023-05-07T10:10:06;5.47;;;4.78;;
36443;SDS011;24692;45.642;13.806;2023-05-07T10:12:32;5.63;;;4.30;;
36443;SDS011;24692;45.642;13.806;2023-05-07T10:15:05;5.43;;;4.88;;
36443;SDS011;24692;45.642;13.806;2023-05-07T10:17:34;6.47;;;5.05;;
36443;SDS011;24692;45.642;13.806;2023-05-07T10:20:04;5.95;;;5.35;;
36443;SDS011;24692;45.642;13.806;2023-05-07T10:22:51;6.07;;;5.57;;
36443;SDS011;24692;45.642;13.806;2023-05-07T10:25:21;5.47;;;4.78;;
36443;SDS011;24692;45.642;13.806;2023-05-07T10:27:50;4.88;;;4.15;;
36443;SDS011;24692;45.642;13.806;2023-05-07T10:30:33;5.13;;;4.43;;
36443;SDS011;24692;45.642;13.806;2023-05-07T10:33:16;5.00;;;4.50;;
36443;SDS011;24692;45.642;13.806;2023-05-07T10:35:44;5.07;;;4.53;;
36443;SDS011;24692;45.642;13.806;2023-05-07T10:38:11;6.03;;;5.45;;
36443;SDS011;24692;45.642;13.806;2023-05-07T10:40:37;7.10;;;5.70;;
36443;SDS011;24692;45.642;13.806;2023-05-07T10:43:04;7.82;;;6.10;;
36443;SDS011;24692;45.642;13.806;2023-05-07T10:45:30;6.50;;;5.75;;
36443;SDS011;24692;45.642;13.806;2023-05-07T10:48:06;6.28;;;5.68;;
36443;SDS011;24692;45.642;13.806;2023-05-07T10:50:44;5.35;;;4.88;;
36443;SDS011;24692;45.642;13.806;2023-05-07T10:55:48;4.88;;;4.40;;
36443;SDS011;24692;45.642;13.806;2023-05-07T11:00:46;4.32;;;3.80;;
36443;SDS011;24692;45.642;13.806;2023-05-07T11:03:15;4.70;;;4.10;;
36443;SDS011;24692;45.642;13.806;2023-05-07T11:05:41;4.47;;;4.07;;
36443;SDS011;24692;45.642;13.806;2023-05-07T11:08:07;4.30;;;3.90;;
36443;SDS011;24692;45.642;13.806;2023-05-07T11:18:56;6.22;;;4.60;;
36443;SDS011;24692;45.642;13.806;2023-05-07T11:21:37;4.97;;;4.28;;
36443;SDS011;24692;45.642;13.806;2023-05-07T11:24:10;5.68;;;4.05;;
36443;SDS011;24692;45.642;13.806;2023-05-07T11:26:43;5.63;;;5.07;;
36443;SDS011;24692;45.642;13.806;2023-05-07T11:29:13;4.60;;;4.20;;
36443;SDS011;24692;45.642;13.806;2023-05-07T11:31:41;6.43;;;4.03;;
36443;SDS011;24692;45.642;13.806;2023-05-07T11:34:07;6.43;;;4.35;;
36443;SDS011;24692;45.642;13.806;2023-05-07T11:36:33;4.20;;;3.80;;
36443;SDS011;24692;45.642;13.806;2023-05-07T11:38:59;4.50;;;4.10;;
36443;SDS011;24692;45.642;13.806;2023-05-07T11:41:37;6.15;;;4.63;;
36443;SDS011;24692;45.642;13.806;2023-05-07T11:44:03;4.40;;;3.95;;
36443;SDS011;24692;45.642;13.806;2023-05-07T11:46:28;4.40;;;4.00;;
36443;SDS011;24692;45.642;13.806;2023-05-07T11:48:55;5.00;;;4.18;;
36443;SDS011;24692;45.642;13.806;2023-05-07T11:51:22;4.70;;;4.03;;
36443;SDS011;24692;45.642;13.806;2023-05-07T11:53:50;5.18;;;4.28;;
36443;SDS011;24692;45.642;13.806;2023-05-07T11:56:17;5.72;;;4.53;;
36443;SDS011;24692;45.642;13.806;2023-05-07T11:58:44;4.82;;;4.00;;
36443;SDS011;24692;45.642;13.806;2023-05-07T12:01:12;3.95;;;3.65;;
36443;SDS011;24692;45.642;13.806;2023-05-07T12:03:42;4.22;;;3.83;;
36443;SDS011;24692;45.642;13.806;2023-05-07T12:06:10;4.97;;;3.95;;
36443;SDS011;24692;45.642;13.806;2023-05-07T12:08:37;4.68;;;3.58;;
36443;SDS011;24692;45.642;13.806;2023-05-07T12:11:06;5.68;;;3.28;;
36443;SDS011;24692;45.642;13.806;2023-05-07T12:13:34;4.60;;;3.33;;
36443;SDS011;24692;45.642;13.806;2023-05-07T12:16:00;4.80;;;3.10;;
36443;SDS011;24692;45.642;13.806;2023-05-07T12:18:28;4.18;;;3.78;;
36443;SDS011;24692;45.642;13.806;2023-05-07T12:20:54;4.25;;;2.85;;
36443;SDS011;24692;45.642;13.806;2023-05-07T12:23:21;3.58;;;3.08;;
36443;SDS011;24692;45.642;13.806;2023-05-07T12:25:48;3.70;;;3.40;;
36443;SDS011;24692;45.642;13.806;2023-05-07T12:28:17;5.28;;;4.00;;
36443;SDS011;24692;45.642;13.806;2023-05-07T12:30:44;5.05;;;4.00;;
36443;SDS011;24692;45.642;13.806;2023-05-07T12:33:11;5.20;;;4.18;;
36443;SDS011;24692;45.642;13.806;2023-05-07T12:35:38;3.95;;;3.58;;
36443;SDS011;24692;45.642;13.806;2023-05-07T12:38:13;3.63;;;3.33;;
36443;SDS011;24692;45.642;13.806;2023-05-07T12:40:40;4.80;;;4.18;;
36443;SDS011;24692;45.642;13.806;2023-05-07T12:43:19;3.80;;;3.42;;
36443;SDS011;24692;45.642;13.806;2023-05-07T12:45:47;3.45;;;2.72;;
36443;SDS011;24692;45.642;13.806;2023-05-07T12:48:14;3.72;;;3.42;;
36443;SDS011;24692;45.642;13.806;2023-05-07T12:50:40;3.78;;;3.33;;
36443;SDS011;24692;45.642;13.806;2023-05-07T12:53:06;4.00;;;3.63;;
36443;SDS011;24692;45.642;13.806;2023-05-07T12:55:40;2.90;;;2.70;;
36443;SDS011;24692;45.642;13.806;2023-05-07T12:58:07;5.03;;;3.70;;
36443;SDS011;24692;45.642;13.806;2023-05-07T13:00:36;6.22;;;3.60;;
36443;SDS011;24692;45.642;13.806;2023-05-07T13:03:03;3.60;;;3.30;;
36443;SDS011;24692;45.642;13.806;2023-05-07T13:05:30;4.90;;;3.67;;
36443;SDS011;24692;45.642;13.806;2023-05-07T13:07:56;4.20;;;3.10;;
36443;SDS011;24692;45.642;13.806;2023-05-07T13:10:22;4.55;;;3.20;;
36443;SDS011;24692;45.642;13.806;2023-05-07T13:12:49;3.97;;;3.63;;
36443;SDS011;24692;45.642;13.806;2023-05-07T13:15:15;4.88;;;3.45;;
36443;SDS011;24692;45.642;13.806;2023-05-07T13:17:41;4.32;;;3.83;;
36443;SDS011;24692;45.642;13.806;2023-05-07T13:20:08;6.22;;;3.78;;
36443;SDS011;24692;45.642;13.806;2023-05-07T13:22:34;4.05;;;3.60;;
36443;SDS011;24692;45.642;13.806;2023-05-07T13:25:00;5.40;;;3.90;;
36443;SDS011;24692;45.642;13.806;2023-05-07T13:27:26;4.63;;;4.10;;
36443;SDS011;24692;45.642;13.806;2023-05-07T13:29:51;4.53;;;3.88;;
36443;SDS011;24692;45.642;13.806;2023-05-07T13:32:20;4.20;;;3.83;;
36443;SDS011;24692;45.642;13.806;2023-05-07T13:34:46;8.48;;;4.78;;
36443;SDS011;24692;45.642;13.806;2023-05-07T13:37:14;5.75;;;4.43;;
36443;SDS011;24692;45.642;13.806;2023-05-07T13:39:41;5.72;;;4.63;;
36443;SDS011;24692;45.642;13.806;2023-05-07T13:42:10;4.88;;;4.22;;
36443;SDS011;24692;45.642;13.806;2023-05-07T13:44:36;8.35;;;5.65;;
36443;SDS011;24692;45.642;13.806;2023-05-07T13:47:02;6.47;;;5.45;;
36443;SDS011;24692;45.642;13.806;2023-05-07T13:49:29;5.82;;;5.30;;
36443;SDS011;24692;45.642;13.806;2023-05-07T13:51:55;10.82;;;6.45;;
36443;SDS011;24692;45.642;13.806;2023-05-07T13:54:20;6.88;;;6.15;;
36443;SDS011;24692;45.642;13.806;2023-05-07T13:56:46;7.63;;;6.82;;
36443;SDS011;24692;45.642;13.806;2023-05-07T13:59:12;8.48;;;6.55;;
36443;SDS011;24692;45.642;13.806;2023-05-07T14:01:40;6.82;;;6.20;;
36443;SDS011;24692;45.642;13.806;2023-05-07T14:04:06;8.57;;;6.60;;
36443;SDS011;24692;45.642;13.806;2023-05-07T14:06:32;7.15;;;6.45;;
36443;SDS011;24692;45.642;13.806;2023-05-07T14:08:58;9.95;;;7.20;;
36443;SDS011;24692;45.642;13.806;2023-05-07T14:11:25;6.90;;;6.25;;
36443;SDS011;24692;45.642;13.806;2023-05-07T14:13:50;7.13;;;5.35;;
36443;SDS011;24692;45.642;13.806;2023-05-07T14:16:16;5.72;;;5.13;;
36443;SDS011;24692;45.642;13.806;2023-05-07T14:18:41;7.00;;;4.95;;
36443;SDS011;24692;45.642;13.806;2023-05-07T14:21:07;6.38;;;4.47;;
36443;SDS011;24692;45.642;13.806;2023-05-07T14:23:34;4.80;;;4.30;;
36443;SDS011;24692;45.642;13.806;2023-05-07T14:26:00;5.65;;;4.20;;
36443;SDS011;24692;45.642;13.806;2023-05-07T14:28:25;5.50;;;4.20;;
36443;SDS011;24692;45.642;13.806;2023-05-07T14:30:51;6.03;;;4.80;;
36443;SDS011;24692;45.642;13.806;2023-05-07T14:33:17;5.03;;;4.60;;
36443;SDS011;24692;45.642;13.806;2023-05-07T14:35:42;5.90;;;4.70;;
36443;SDS011;24692;45.642;13.806;2023-05-07T14:38:12;5.90;;;4.63;;
36443;SDS011;24692;45.642;13.806;2023-05-07T14:40:38;5.63;;;4.80;;
36443;SDS011;24692;45.642;13.806;2023-05-07T14:43:04;5.50;;;4.75;;
36443;SDS011;24692;45.642;13.806;2023-05-07T14:45:30;5.30;;;4.80;;